Time;durP1;ratioP1;P1;durP2;ratioP2;P2;SDS_P1;SDS_P2;PMS_P1;PMS_P2;Temp;Humidity;BMP_temperature;BMP_pressure;BME280_temperature;BME280_humidity;BME280_pressure;Samples;Min_cycle;Max_cycle;Signal;HPM_P1;HPM_P2
2024/02/15 00:02:17;;;;;;;;;8.25;6.00;;;;;;;;5092626;28;8839;-80
2024/02/15 00:04:44;;;;;;;;;4.75;4.75;;;;;;;;5093707;28;8835;-81
2024/02/15 00:07:12;;;;;;;;;7.50;7.00;;;;;;;;5095219;28;8865;-81
2024/02/15 00:09:40;;;;;;;;;6.00;6.00;;;;;;;;5095626;28;8826;-82
2024/02/15 00:12:08;;;;;;;;;5.75;5.75;;;;;;;;5095505;28;8846;-82
2024/02/15 00:14:38;;;;;;;;;6.00;6.00;;;;;;;;5095283;28;8831;-82
2024/02/15 00:17:05;;;;;;;;;4.75;4.75;;;;;;;;5095007;28;8905;-81
2024/02/15 00:19:32;;;;;;;;;6.00;5.75;;;;;;;;5091632;28;8969;-87
2024/02/15 00:22:01;;;;;;;;;6.00;6.00;;;;;;;;5091389;28;9666;-81
2024/02/15 00:24:28;;;;;;;;;6.25;6.25;;;;;;;;5090756;28;8838;-81
2024/02/15 00:26:56;;;;;;;;;6.00;6.00;;;;;;;;5091628;28;8888;-81
2024/02/15 00:29:24;;;;;;;;;6.00;6.00;;;;;;;;5090880;28;8992;-81
2024/02/15 00:31:53;;;;;;;;;8.75;7.00;;;;;;;;5090473;28;8794;-83
2024/02/15 00:34:21;;;;;;;;;6.00;6.00;;;;;;;;5078564;28;9245;-87
2024/02/15 00:36:49;;;;;;;;;6.50;5.00;;;;;;;;5090528;28;8919;-84
2024/02/15 00:39:18;;;;;;;;;6.00;6.00;;;;;;;;5091441;28;9632;-85
2024/02/15 00:41:45;;;;;;;;;10.00;6.75;;;;;;;;5090944;28;8881;-83
2024/02/15 00:44:14;;;;;;;;;3.00;3.00;;;;;;;;5091076;28;8842;-84
2024/02/15 00:46:41;;;;;;;;;5.75;5.75;;;;;;;;5090952;28;8854;-86
2024/02/15 00:49:09;;;;;;;;;7.00;7.00;;;;;;;;5092526;28;8850;-81
2024/02/15 00:51:36;;;;;;;;;6.00;6.00;;;;;;;;5092982;28;9012;-80
2024/02/15 00:54:04;;;;;;;;;6.50;5.00;;;;;;;;5092635;28;8877;-81
2024/02/15 00:56:32;;;;;;;;;8.25;5.50;;;;;;;;5090498;28;9001;-82
2024/02/15 00:59:01;;;;;;;;;7.75;5.00;;;;;;;;5090668;28;8876;-80
2024/02/15 01:01:32;;;;;;;;;6.00;6.00;;;;;;;;5089809;28;8795;-82
2024/02/15 01:03:59;;;;;;;;;9.75;7.00;;;;;;;;5090495;28;9617;-82
2024/02/15 01:06:29;;;;;;;;;5.50;5.50;;;;;;;;5089766;28;8972;-82
2024/02/15 01:08:57;;;;;;;;;4.50;4.50;;;;;;;;5090459;28;8903;-82
2024/02/15 01:11:25;;;;;;;;;5.75;5.75;;;;;;;;5091127;28;8947;-84
2024/02/15 01:13:55;;;;;;;;;7.75;4.25;;;;;;;;5092189;28;8854;-81
2024/02/15 01:16:22;;;;;;;;;4.00;4.00;;;;;;;;5094891;28;8959;-86
2024/02/15 01:18:51;;;;;;;;;5.25;5.25;;;;;;;;5098086;28;8842;-83
2024/02/15 01:21:18;;;;;;;;;7.75;4.50;;;;;;;;5089129;28;8846;-81
2024/02/15 01:23:48;;;;;;;;;5.25;5.25;;;;;;;;5090089;28;8889;-81
2024/02/15 01:26:15;;;;;;;;;6.00;4.00;;;;;;;;5089697;28;8902;-81
2024/02/15 01:28:43;;;;;;;;;6.50;6.25;;;;;;;;5089496;28;8842;-84
2024/02/15 01:31:11;;;;;;;;;4.75;3.75;;;;;;;;5089278;28;8787;-81
2024/02/15 01:33:38;;;;;;;;;4.50;4.00;;;;;;;;5090097;28;8862;-81
2024/02/15 01:36:07;;;;;;;;;3.25;3.25;;;;;;;;5090208;28;9001;-80
2024/02/15 01:38:35;;;;;;;;;1.50;1.50;;;;;;;;5089546;28;9611;-90
2024/02/15 01:41:03;;;;;;;;;3.00;3.00;;;;;;;;5090784;28;8872;-88
2024/02/15 01:43:32;;;;;;;;;4.75;3.00;;;;;;;;5090182;28;8846;-88
2024/02/15 01:46:03;;;;;;;;;2.75;2.75;;;;;;;;5090757;28;9609;-81
2024/02/15 01:48:30;;;;;;;;;6.00;4.00;;;;;;;;5090158;28;8863;-81
2024/02/15 01:50:58;;;;;;;;;4.75;4.75;;;;;;;;5091346;28;8861;-81
2024/02/15 01:53:28;;;;;;;;;5.75;4.75;;;;;;;;5091455;28;8904;-81
2024/02/15 01:55:57;;;;;;;;;5.00;5.00;;;;;;;;5092769;28;8838;-83
2024/02/15 01:58:24;;;;;;;;;6.00;4.25;;;;;;;;5093235;28;8844;-82
2024/02/15 02:00:52;;;;;;;;;3.00;3.00;;;;;;;;5092846;28;8812;-81
2024/02/15 02:03:19;;;;;;;;;4.50;3.25;;;;;;;;5092114;28;8859;-81
2024/02/15 02:05:47;;;;;;;;;5.50;4.25;;;;;;;;5092600;28;8981;-82
2024/02/15 02:08:14;;;;;;;;;3.25;2.25;;;;;;;;5090983;28;9615;-81
2024/02/15 02:10:45;;;;;;;;;3.25;2.25;;;;;;;;5088933;28;8869;-80
2024/02/15 02:13:12;;;;;;;;;4.00;4.00;;;;;;;;5088471;28;8838;-83
2024/02/15 02:15:40;;;;;;;;;3.50;3.50;;;;;;;;5088573;28;8846;-83
2024/02/15 02:18:08;;;;;;;;;3.67;3.67;;;;;;;;5088859;28;8912;-81
2024/02/15 02:20:36;;;;;;;;;4.00;4.00;;;;;;;;5087293;28;8846;-81
2024/02/15 02:23:08;;;;;;;;;2.25;2.25;;;;;;;;5088893;28;8962;-82
2024/02/15 02:25:36;;;;;;;;;3.75;3.75;;;;;;;;5088444;28;8888;-83
2024/02/15 02:28:04;;;;;;;;;3.25;3.25;;;;;;;;5088771;28;8846;-81
2024/02/15 02:30:32;;;;;;;;;3.25;3.25;;;;;;;;5088120;28;8763;-82
2024/02/15 02:32:59;;;;;;;;;2.25;2.25;;;;;;;;5088968;28;8843;-84
2024/02/15 02:35:26;;;;;;;;;3.25;3.25;;;;;;;;5089052;28;8846;-81
2024/02/15 02:37:56;;;;;;;;;3.00;3.00;;;;;;;;5080868;28;8980;-83
2024/02/15 02:40:23;;;;;;;;;3.00;3.00;;;;;;;;5091483;28;8842;-89
2024/02/15 02:42:53;;;;;;;;;3.25;3.25;;;;;;;;5091041;28;8976;-85
2024/02/15 02:45:22;;;;;;;;;3.00;3.00;;;;;;;;5088948;28;8830;-81
2024/02/15 02:47:49;;;;;;;;;3.00;3.00;;;;;;;;5088309;28;8836;-81
2024/02/15 02:50:17;;;;;;;;;4.00;4.00;;;;;;;;5088307;28;8977;-81
2024/02/15 02:52:44;;;;;;;;;2.75;2.75;;;;;;;;5088654;28;8858;-82
2024/02/15 02:55:12;;;;;;;;;3.00;3.00;;;;;;;;5082826;28;8979;-80
2024/02/15 02:57:39;;;;;;;;;6.25;5.00;;;;;;;;5082690;28;8850;-80
2024/02/15 03:00:12;;;;;;;;;3.50;2.00;;;;;;;;5087199;28;8874;-81
2024/02/15 03:02:39;;;;;;;;;2.00;2.00;;;;;;;;5090010;28;9610;-85
2024/02/15 03:05:08;;;;;;;;;2.75;2.75;;;;;;;;5089200;28;8895;-81
2024/02/15 03:07:36;;;;;;;;;3.00;3.00;;;;;;;;5089487;28;8858;-81
2024/02/15 03:10:04;;;;;;;;;4.25;3.75;;;;;;;;5089422;28;8846;-82
2024/02/15 03:12:31;;;;;;;;;2.00;2.00;;;;;;;;5087087;28;8842;-80
2024/02/15 03:14:59;;;;;;;;;2.25;2.25;;;;;;;;5088639;28;8830;-82
2024/02/15 03:17:27;;;;;;;;;4.50;3.00;;;;;;;;5088615;28;8947;-80
2024/02/15 03:19:55;;;;;;;;;2.00;2.00;;;;;;;;5078059;28;8864;-80
2024/02/15 03:22:25;;;;;;;;;6.00;4.00;;;;;;;;5086254;28;8858;-85
2024/02/15 03:24:52;;;;;;;;;3.00;3.00;;;;;;;;5089725;28;8927;-81
2024/02/15 03:27:23;;;;;;;;;3.00;3.00;;;;;;;;5091482;28;8868;-81
2024/02/15 03:29:51;;;;;;;;;3.75;2.25;;;;;;;;5091657;28;8959;-81
2024/02/15 03:32:18;;;;;;;;;3.50;2.75;;;;;;;;5091954;28;8887;-81
2024/02/15 03:34:47;;;;;;;;;3.00;3.00;;;;;;;;5092231;28;8838;-81
2024/02/15 03:37:15;;;;;;;;;3.00;3.00;;;;;;;;5074844;28;8869;-82
2024/02/15 03:39:42;;;;;;;;;5.25;4.00;;;;;;;;5093492;28;8940;-81
2024/02/15 03:42:10;;;;;;;;;2.75;2.75;;;;;;;;5095216;28;8854;-84
2024/02/15 03:44:38;;;;;;;;;2.75;2.75;;;;;;;;5094950;28;8870;-81
2024/02/15 03:47:06;;;;;;;;;5.25;4.00;;;;;;;;5096009;28;8846;-83
2024/02/15 03:49:33;;;;;;;;;2.75;2.75;;;;;;;;5095494;28;8839;-80
2024/02/15 03:52:02;;;;;;;;;5.00;4.00;;;;;;;;5095490;28;8970;-81
2024/02/15 03:54:29;;;;;;;;;3.00;3.00;;;;;;;;5094851;28;8857;-83
2024/02/15 03:56:57;;;;;;;;;3.00;3.00;;;;;;;;5094804;28;8838;-82
2024/02/15 03:59:27;;;;;;;;;4.50;3.00;;;;;;;;5090757;28;8850;-81
2024/02/15 04:01:54;;;;;;;;;4.50;3.00;;;;;;;;5091019;28;8810;-82
2024/02/15 04:04:22;;;;;;;;;4.00;2.00;;;;;;;;5091032;28;8973;-82
2024/02/15 04:06:49;;;;;;;;;4.00;2.75;;;;;;;;5091453;28;8866;-83
2024/02/15 04:09:18;;;;;;;;;3.00;3.00;;;;;;;;5090146;28;8848;-86
2024/02/15 04:11:46;;;;;;;;;2.00;2.00;;;;;;;;5090626;28;8857;-81
2024/02/15 04:14:14;;;;;;;;;1.50;1.50;;;;;;;;5090880;28;8858;-82
2024/02/15 04:16:41;;;;;;;;;2.00;2.00;;;;;;;;5091058;28;8870;-82
2024/02/15 04:19:08;;;;;;;;;3.50;3.00;;;;;;;;5091166;28;8854;-82
2024/02/15 04:21:35;;;;;;;;;4.75;3.25;;;;;;;;5091446;28;9594;-85
2024/02/15 04:24:03;;;;;;;;;3.00;3.00;;;;;;;;5091602;28;9708;-85
2024/02/15 04:26:33;;;;;;;;;3.00;2.00;;;;;;;;5092234;28;8864;-85
2024/02/15 04:29:00;;;;;;;;;1.25;1.25;;;;;;;;5093643;28;8886;-84
2024/02/15 04:31:27;;;;;;;;;2.00;2.00;;;;;;;;5093124;28;8793;-87
2024/02/15 04:33:54;;;;;;;;;3.25;2.50;;;;;;;;5092771;28;8857;-87
2024/02/15 04:36:23;;;;;;;;;4.00;2.25;;;;;;;;5090997;28;8864;-81
2024/02/15 04:38:51;;;;;;;;;2.00;2.00;;;;;;;;5081307;28;8846;-83
2024/02/15 04:41:23;;;;;;;;;2.00;2.00;;;;;;;;5090527;28;9652;-82
2024/02/15 04:43:52;;;;;;;;;2.00;2.00;;;;;;;;5092301;28;8877;-81
2024/02/15 04:46:21;;;;;;;;;3.00;3.00;;;;;;;;5092154;28;8869;-82
2024/02/15 04:48:50;;;;;;;;;2.00;2.00;;;;;;;;5090115;28;10047;-84
2024/02/15 04:51:19;;;;;;;;;2.50;2.00;;;;;;;;5090856;28;9117;-82
2024/02/15 04:53:49;;;;;;;;;4.00;2.00;;;;;;;;5091283;28;8941;-79
2024/02/15 04:56:16;;;;;;;;;3.75;3.75;;;;;;;;5091941;28;8842;-82
2024/02/15 04:58:47;;;;;;;;;3.00;3.00;;;;;;;;5090231;28;8934;-83
2024/02/15 05:01:17;;;;;;;;;2.75;2.75;;;;;;;;5089446;28;8848;-82
2024/02/15 05:03:45;;;;;;;;;3.00;1.00;;;;;;;;5088445;28;8839;-83
2024/02/15 05:06:13;;;;;;;;;4.25;2.50;;;;;;;;5074403;28;8844;-81
2024/02/15 05:08:43;;;;;;;;;2.00;2.00;;;;;;;;5107214;28;8852;-83
2024/02/15 05:11:15;;;;;;;;;4.25;2.00;;;;;;;;5090445;28;8865;-86
2024/02/15 05:13:42;;;;;;;;;3.00;3.00;;;;;;;;5089982;28;8854;-85
2024/02/15 05:16:09;;;;;;;;;3.50;2.00;;;;;;;;5090180;28;8842;-84
2024/02/15 05:18:39;;;;;;;;;2.75;2.75;;;;;;;;5089756;28;9659;-83
2024/02/15 05:21:09;;;;;;;;;2.50;2.00;;;;;;;;5089884;28;8975;-80
2024/02/15 05:23:37;;;;;;;;;1.75;1.75;;;;;;;;5089387;28;8832;-81
2024/02/15 05:26:05;;;;;;;;;3.00;3.00;;;;;;;;5089825;28;8857;-82
2024/02/15 05:28:32;;;;;;;;;2.75;2.75;;;;;;;;5089943;28;8850;-80
2024/02/15 05:31:14;;;;;;;;;2.00;2.00;;;;;;;;5090915;28;8848;-80
2024/02/15 05:33:43;;;;;;;;;2.00;2.00;;;;;;;;5090981;28;8869;-81
2024/02/15 05:36:22;;;;;;;;;4.75;2.00;;;;;;;;5093355;28;8850;-84
2024/02/15 05:41:46;;;;;;;;;2.75;2.75;;;;;;;;5091800;28;8950;-82
2024/02/15 05:44:17;;;;;;;;;2.00;2.00;;;;;;;;5092938;28;8864;-81
2024/02/15 05:46:45;;;;;;;;;2.75;2.75;;;;;;;;5090761;28;8831;-81
2024/02/15 05:49:17;;;;;;;;;2.00;2.00;;;;;;;;5089038;28;8846;-81
2024/02/15 05:51:51;;;;;;;;;2.50;2.00;;;;;;;;5080990;28;8866;-80
2024/02/15 05:54:18;;;;;;;;;2.75;2.75;;;;;;;;5089099;28;8920;-82
2024/02/15 05:56:51;;;;;;;;;2.25;2.25;;;;;;;;5089082;28;8892;-82
2024/02/15 05:59:20;;;;;;;;;2.25;2.25;;;;;;;;5088991;28;8858;-85
2024/02/15 06:01:48;;;;;;;;;2.00;2.00;;;;;;;;5088456;28;9591;-81
2024/02/15 06:04:17;;;;;;;;;2.00;2.00;;;;;;;;5088423;28;8842;-85
2024/02/15 06:06:48;;;;;;;;;0.50;0.50;;;;;;;;5089504;28;8887;-84
2024/02/15 06:09:15;;;;;;;;;2.00;2.00;;;;;;;;5087680;28;8848;-81
2024/02/15 06:11:46;;;;;;;;;2.50;2.50;;;;;;;;5088652;28;8865;-80
2024/02/15 06:14:13;;;;;;;;;3.75;2.50;;;;;;;;5089166;28;8858;-86
2024/02/15 06:16:45;;;;;;;;;2.75;2.75;;;;;;;;5089618;28;8880;-80
2024/02/15 06:19:16;;;;;;;;;4.00;4.00;;;;;;;;5090775;28;8858;-81
2024/02/15 06:21:43;;;;;;;;;4.25;4.25;;;;;;;;5089355;28;8854;-81
2024/02/15 06:24:13;;;;;;;;;5.00;5.00;;;;;;;;5088507;28;8962;-79
2024/02/15 06:26:42;;;;;;;;;3.00;3.00;;;;;;;;5087766;28;8842;-81
2024/02/15 06:40:25;;;;;;;;;9.00;7.25;;;;;;;;5088057;28;8822;-80
2024/02/15 06:43:01;;;;;;;;;7.25;7.25;;;;;;;;5086848;28;8854;-80
2024/02/15 06:45:32;;;;;;;;;8.25;7.00;;;;;;;;5088440;28;8846;-80
2024/02/15 06:48:01;;;;;;;;;7.50;6.25;;;;;;;;5088094;28;8980;-80
2024/02/15 06:50:32;;;;;;;;;7.75;6.25;;;;;;;;5088457;28;8845;-79
2024/02/15 06:53:02;;;;;;;;;4.50;4.50;;;;;;;;5083194;28;8838;-81
2024/02/15 06:55:33;;;;;;;;;4.00;4.00;;;;;;;;5085040;28;8854;-80
2024/02/15 06:58:00;;;;;;;;;8.25;7.00;;;;;;;;5088099;28;8923;-80
2024/02/15 07:00:30;;;;;;;;;5.50;5.50;;;;;;;;5094813;28;8830;-81
2024/02/15 07:02:57;;;;;;;;;7.00;5.00;;;;;;;;5087922;28;9625;-80
2024/02/15 07:05:24;;;;;;;;;4.00;4.00;;;;;;;;5086395;28;8864;-80
2024/02/15 07:07:54;;;;;;;;;7.25;6.00;;;;;;;;5087591;28;9008;-81
2024/02/15 07:10:22;;;;;;;;;6.00;4.75;;;;;;;;5100016;28;8852;-80
2024/02/15 07:12:49;;;;;;;;;6.50;5.00;;;;;;;;5088444;28;8838;-82
2024/02/15 07:15:17;;;;;;;;;3.75;3.75;;;;;;;;5088277;28;8858;-80
2024/02/15 07:17:44;;;;;;;;;4.00;4.00;;;;;;;;5088439;28;9616;-77
2024/02/15 07:20:17;;;;;;;;;3.00;3.00;;;;;;;;5088737;28;8969;-78
2024/02/15 07:22:45;;;;;;;;;7.00;4.75;;;;;;;;5090363;28;8870;-82
2024/02/15 07:25:15;;;;;;;;;4.75;4.75;;;;;;;;5090230;28;8854;-78
2024/02/15 07:27:43;;;;;;;;;6.75;5.25;;;;;;;;5089795;28;8973;-80
2024/02/15 07:30:11;;;;;;;;;6.00;4.00;;;;;;;;5089596;28;8949;-80
2024/02/15 07:32:38;;;;;;;;;4.75;4.75;;;;;;;;5089614;28;8848;-79
2024/02/15 07:35:07;;;;;;;;;4.25;4.25;;;;;;;;5088594;28;8846;-76
2024/02/15 07:37:34;;;;;;;;;5.00;3.75;;;;;;;;5087484;28;8893;-77
2024/02/15 07:40:03;;;;;;;;;4.00;4.00;;;;;;;;5087396;28;8961;-77
2024/02/15 07:42:35;;;;;;;;;7.25;6.00;;;;;;;;5087118;28;8861;-75
2024/02/15 07:45:06;;;;;;;;;4.00;4.00;;;;;;;;5087470;28;8863;-77
2024/02/15 07:47:33;;;;;;;;;4.00;4.00;;;;;;;;5087022;28;8950;-79
2024/02/15 07:50:05;;;;;;;;;5.67;4.00;;;;;;;;5087634;28;9077;-77
2024/02/15 07:52:33;;;;;;;;;6.33;6.00;;;;;;;;5087112;28;8926;-83
2024/02/15 07:55:08;;;;;;;;;4.00;4.00;;;;;;;;5078368;28;9027;-82
2024/02/15 07:57:37;;;;;;;;;6.33;5.00;;;;;;;;5086852;28;8919;-84
2024/02/15 08:00:10;;;;;;;;;7.00;5.50;;;;;;;;5087874;28;8958;-81
2024/02/15 08:02:40;;;;;;;;;5.67;5.67;;;;;;;;5087507;28;8929;-81
2024/02/15 08:05:10;;;;;;;;;5.50;5.25;;;;;;;;5088936;28;8936;-81
2024/02/15 08:07:38;;;;;;;;;5.00;5.00;;;;;;;;5089287;28;8920;-80
2024/02/15 08:10:13;;;;;;;;;6.00;6.00;;;;;;;;5088052;28;9003;-81
2024/02/15 08:12:43;;;;;;;;;5.50;5.50;;;;;;;;5079280;28;8865;-79
2024/02/15 08:15:12;;;;;;;;;3.50;3.50;;;;;;;;5091048;28;9632;-80
2024/02/15 08:17:40;;;;;;;;;4.00;4.00;;;;;;;;5091311;28;8854;-80
2024/02/15 08:20:09;;;;;;;;;7.00;5.25;;;;;;;;5090787;28;8826;-79
2024/02/15 08:22:38;;;;;;;;;4.00;4.00;;;;;;;;5091248;28;9589;-77
2024/02/15 08:25:10;;;;;;;;;5.50;5.50;;;;;;;;5090426;28;8850;-77
2024/02/15 08:27:40;;;;;;;;;7.00;7.00;;;;;;;;5090626;28;8826;-79
2024/02/15 08:30:10;;;;;;;;;6.00;5.00;;;;;;;;5089584;28;8927;-81
2024/02/15 08:32:39;;;;;;;;;6.50;5.00;;;;;;;;5090667;28;8842;-80
2024/02/15 08:35:08;;;;;;;;;7.00;7.00;;;;;;;;5090203;28;8845;-82
2024/02/15 08:37:35;;;;;;;;;6.75;6.50;;;;;;;;5090508;28;8858;-80
2024/02/15 08:40:10;;;;;;;;;2.00;2.00;;;;;;;;5090452;28;8834;-82
2024/02/15 08:42:38;;;;;;;;;8.00;6.50;;;;;;;;5090458;28;9624;-81
2024/02/15 08:45:08;;;;;;;;;6.75;6.00;;;;;;;;5090377;28;8865;-81
2024/02/15 08:47:38;;;;;;;;;4.25;4.25;;;;;;;;5089920;28;8834;-83
2024/02/15 08:50:06;;;;;;;;;4.00;4.00;;;;;;;;5088530;28;8927;-81
2024/02/15 08:52:34;;;;;;;;;6.25;5.50;;;;;;;;5090057;28;8834;-79
2024/02/15 08:55:01;;;;;;;;;5.25;5.25;;;;;;;;5090050;28;9665;-76
2024/02/15 08:57:28;;;;;;;;;4.00;4.00;;;;;;;;5088030;28;8867;-80
2024/02/15 08:59:57;;;;;;;;;5.75;3.00;;;;;;;;5090234;28;8842;-81
2024/02/15 09:02:25;;;;;;;;;4.00;4.00;;;;;;;;5089058;28;8888;-77
2024/02/15 09:04:54;;;;;;;;;6.00;5.00;;;;;;;;5090650;28;8830;-76
2024/02/15 09:07:22;;;;;;;;;5.00;5.00;;;;;;;;5091248;28;9496;-78
2024/02/15 09:09:49;;;;;;;;;7.50;7.50;;;;;;;;5092412;28;8850;-76
2024/02/15 09:12:16;;;;;;;;;4.00;4.00;;;;;;;;5092352;28;8842;-76
2024/02/15 09:14:43;;;;;;;;;4.50;4.50;;;;;;;;5091522;28;8862;-79
2024/02/15 09:17:11;;;;;;;;;5.75;3.00;;;;;;;;5092176;28;8850;-76
2024/02/15 09:19:38;;;;;;;;;7.00;3.00;;;;;;;;5091543;28;9057;-79
2024/02/15 09:22:09;;;;;;;;;4.00;4.00;;;;;;;;5089531;28;8976;-76
2024/02/15 09:24:38;;;;;;;;;2.00;2.00;;;;;;;;5089683;28;8856;-79
2024/02/15 09:27:06;;;;;;;;;4.00;2.50;;;;;;;;5089169;28;8862;-76
2024/02/15 09:29:33;;;;;;;;;3.75;3.00;;;;;;;;5089092;28;8850;-77
2024/02/15 09:32:02;;;;;;;;;4.00;4.00;;;;;;;;5088662;28;9601;-77
2024/02/15 09:34:29;;;;;;;;;3.00;3.00;;;;;;;;5089678;28;8846;-84
2024/02/15 09:36:56;;;;;;;;;2.25;2.25;;;;;;;;5077373;28;9640;-83
2024/02/15 09:39:25;;;;;;;;;2.75;2.00;;;;;;;;5089238;28;9721;-84
2024/02/15 09:41:58;;;;;;;;;1.75;1.75;;;;;;;;5089364;28;8850;-84
2024/02/15 09:44:27;;;;;;;;;2.00;2.00;;;;;;;;5088964;28;8858;-81
2024/02/15 09:47:03;;;;;;;;;1.25;1.25;;;;;;;;5089624;28;8850;-83
2024/02/15 09:49:31;;;;;;;;;3.75;2.00;;;;;;;;5089648;28;8842;-80
2024/02/15 09:52:00;;;;;;;;;2.00;2.00;;;;;;;;5090842;28;8838;-83
2024/02/15 09:54:29;;;;;;;;;2.00;2.00;;;;;;;;5090415;28;8851;-84
2024/02/15 09:56:57;;;;;;;;;3.00;3.00;;;;;;;;5091447;28;8869;-84
2024/02/15 09:59:24;;;;;;;;;2.20;2.00;;;;;;;;5088246;28;9000;-80
2024/02/15 10:01:52;;;;;;;;;1.80;1.80;;;;;;;;5088479;28;9719;-80
2024/02/15 10:04:19;;;;;;;;;3.00;3.00;;;;;;;;5087993;28;8857;-84
2024/02/15 10:06:47;;;;;;;;;2.00;2.00;;;;;;;;5089149;28;9632;-85
2024/02/15 10:09:29;;;;;;;;;1.80;1.80;;;;;;;;5088513;28;8830;-82
2024/02/15 10:11:57;;;;;;;;;2.20;2.20;;;;;;;;5088936;28;8980;-80
2024/02/15 10:14:25;;;;;;;;;3.40;2.20;;;;;;;;5089310;28;8854;-83
2024/02/15 10:16:53;;;;;;;;;2.20;2.20;;;;;;;;5088230;28;8914;-78
2024/02/15 10:19:24;;;;;;;;;2.00;2.00;;;;;;;;5088722;28;8865;-77
2024/02/15 10:21:55;;;;;;;;;4.00;2.20;;;;;;;;5088652;28;8850;-85
2024/02/15 10:24:24;;;;;;;;;3.00;3.00;;;;;;;;5089829;28;8873;-85
2024/02/15 10:27:03;;;;;;;;;1.00;1.00;;;;;;;;5088512;28;8846;-82
2024/02/15 10:29:30;;;;;;;;;2.60;2.00;;;;;;;;5089631;28;8842;-81
2024/02/15 10:31:59;;;;;;;;;1.40;1.40;;;;;;;;5087455;28;8815;-79
2024/02/15 10:34:27;;;;;;;;;2.00;2.00;;;;;;;;5088783;28;8849;-83
2024/02/15 10:36:56;;;;;;;;;3.00;3.00;;;;;;;;5087263;28;8853;-78
2024/02/15 10:39:24;;;;;;;;;2.00;2.00;;;;;;;;5088786;28;8858;-78
2024/02/15 10:41:54;;;;;;;;;2.00;2.00;;;;;;;;5088977;28;8857;-82
2024/02/15 10:44:26;;;;;;;;;2.20;2.20;;;;;;;;5087712;28;8868;-82
2024/02/15 10:46:54;;;;;;;;;3.80;3.80;;;;;;;;5088908;28;8854;-85
2024/02/15 10:49:21;;;;;;;;;1.80;1.80;;;;;;;;5087207;28;8840;-84
2024/02/15 10:51:54;;;;;;;;;3.00;3.00;;;;;;;;5088938;28;8854;-83
2024/02/15 10:54:41;;;;;;;;;2.00;2.00;;;;;;;;5090098;28;8838;-82
2024/02/15 10:57:12;;;;;;;;;4.00;3.00;;;;;;;;5090324;28;8874;-83
2024/02/15 10:59:41;;;;;;;;;2.80;2.80;;;;;;;;5090401;28;8911;-84
2024/02/15 11:02:29;;;;;;;;;1.60;1.60;;;;;;;;5090971;28;8817;-83
2024/02/15 11:05:02;;;;;;;;;2.80;2.80;;;;;;;;5082666;28;8996;-82
2024/02/15 11:07:30;;;;;;;;;2.40;2.00;;;;;;;;5090614;28;8834;-79
2024/02/15 11:09:58;;;;;;;;;3.00;1.20;;;;;;;;5091112;28;8981;-81
2024/02/15 11:12:30;;;;;;;;;2.60;2.60;;;;;;;;5088692;28;9665;-78
2024/02/15 11:14:58;;;;;;;;;2.60;2.60;;;;;;;;5088286;28;8854;-80
2024/02/15 11:17:50;;;;;;;;;2.00;2.00;;;;;;;;5088012;28;8865;-85
2024/02/15 11:20:52;;;;;;;;;3.40;2.00;;;;;;;;5088075;28;8843;-80
2024/02/15 11:23:27;;;;;;;;;4.00;4.00;;;;;;;;5087441;28;8857;-80
2024/02/15 11:25:56;;;;;;;;;1.80;1.80;;;;;;;;5088109;28;8847;-83
2024/02/15 11:28:41;;;;;;;;;3.00;3.00;;;;;;;;5086818;28;8841;-78
2024/02/15 11:31:13;;;;;;;;;1.00;1.00;;;;;;;;5087154;28;8825;-81
2024/02/15 11:33:42;;;;;;;;;3.20;3.20;;;;;;;;5084014;28;8859;-78
2024/02/15 11:36:11;;;;;;;;;1.80;1.80;;;;;;;;5070636;28;8866;-80
2024/02/15 11:38:41;;;;;;;;;1.80;1.80;;;;;;;;5087266;28;8869;-79
2024/02/15 11:41:10;;;;;;;;;2.00;2.00;;;;;;;;5088032;28;8852;-79
2024/02/15 11:43:58;;;;;;;;;1.80;1.80;;;;;;;;5092446;28;8945;-79
2024/02/15 11:46:29;;;;;;;;;2.20;2.00;;;;;;;;5091485;28;8862;-79
2024/02/15 11:48:58;;;;;;;;;4.80;3.00;;;;;;;;5091701;28;8855;-85
2024/02/15 11:51:42;;;;;;;;;2.80;2.80;;;;;;;;5091396;28;8854;-80
2024/02/15 11:54:11;;;;;;;;;4.40;2.00;;;;;;;;5091349;28;9714;-80
2024/02/15 12:18:38;;;;;;;;;3.40;1.60;;;;;;;;5086640;28;8850;-80
2024/02/15 12:19:17;;;;;;;;;3.20;3.20;;;;;;;;5079996;28;8850;-77
2024/02/15 12:21:44;;;;;;;;;3.80;2.00;;;;;;;;5088851;28;9016;-81
2024/02/15 12:24:12;;;;;;;;;0.60;0.60;;;;;;;;5090160;28;8876;-82
2024/02/15 12:26:40;;;;;;;;;2.00;2.00;;;;;;;;5089026;28;8850;-80
2024/02/15 12:29:08;;;;;;;;;4.80;3.00;;;;;;;;5091157;28;8826;-78
2024/02/15 12:31:39;;;;;;;;;4.20;2.80;;;;;;;;5089720;28;8826;-81
2024/02/15 12:34:07;;;;;;;;;1.80;1.80;;;;;;;;5090819;28;8857;-81
2024/02/15 12:36:36;;;;;;;;;0.80;0.80;;;;;;;;5088863;28;8875;-82
2024/02/15 12:39:11;;;;;;;;;4.20;3.00;;;;;;;;5091442;28;8922;-81
2024/02/15 12:41:41;;;;;;;;;2.60;2.60;;;;;;;;5091553;28;8854;-81
2024/02/15 12:44:10;;;;;;;;;4.00;0.80;;;;;;;;5091962;28;8842;-79
2024/02/15 12:46:40;;;;;;;;;1.60;1.60;;;;;;;;5094095;28;8854;-81
2024/02/15 12:49:13;;;;;;;;;3.60;2.00;;;;;;;;5093179;28;8915;-81
2024/02/15 12:51:41;;;;;;;;;4.00;3.00;;;;;;;;5091222;28;8846;-83
2024/02/15 12:54:13;;;;;;;;;2.20;2.20;;;;;;;;5093605;28;8857;-82
2024/02/15 12:56:40;;;;;;;;;0.00;0.00;;;;;;;;5093231;28;8854;-83
2024/02/15 12:59:08;;;;;;;;;2.80;2.80;;;;;;;;5093779;28;8842;-77
2024/02/15 13:01:35;;;;;;;;;2.00;2.00;;;;;;;;5090058;28;8856;-81
2024/02/15 13:04:05;;;;;;;;;2.00;2.00;;;;;;;;5088385;28;8819;-83
2024/02/15 13:06:35;;;;;;;;;2.40;2.40;;;;;;;;5089820;28;8873;-83
2024/02/15 13:09:03;;;;;;;;;3.80;2.00;;;;;;;;5089912;28;9671;-82
2024/02/15 13:11:32;;;;;;;;;2.00;2.00;;;;;;;;5089631;28;8938;-79
2024/02/15 13:13:59;;;;;;;;;1.00;1.00;;;;;;;;5089765;28;8861;-81
2024/02/15 13:16:28;;;;;;;;;2.00;2.00;;;;;;;;5089772;28;8878;-83
2024/02/15 13:18:55;;;;;;;;;0.80;0.00;;;;;;;;5089503;28;8887;-82
2024/02/15 13:21:30;;;;;;;;;2.80;1.80;;;;;;;;5089246;28;9581;-82
2024/02/15 13:23:57;;;;;;;;;2.60;2.00;;;;;;;;5089950;28;8842;-82
2024/02/15 13:26:25;;;;;;;;;1.60;1.60;;;;;;;;5088914;28;8870;-83
2024/02/15 13:28:53;;;;;;;;;1.00;1.00;;;;;;;;5090783;28;8862;-82
2024/02/15 13:31:21;;;;;;;;;2.00;2.00;;;;;;;;5091935;28;8798;-82
2024/02/15 13:33:48;;;;;;;;;1.00;1.00;;;;;;;;5093777;28;8850;-83
2024/02/15 13:36:15;;;;;;;;;2.80;1.40;;;;;;;;5080774;28;8877;-80
2024/02/15 13:38:44;;;;;;;;;0.00;0.00;;;;;;;;5088415;28;9249;-82
2024/02/15 13:41:11;;;;;;;;;2.20;2.00;;;;;;;;5088978;28;8842;-82
2024/02/15 13:43:42;;;;;;;;;1.00;1.00;;;;;;;;5089343;28;8838;-79
2024/02/15 13:46:09;;;;;;;;;1.00;1.00;;;;;;;;5089595;28;8869;-81
2024/02/15 13:48:36;;;;;;;;;2.00;2.00;;;;;;;;5089291;28;8988;-81
2024/02/15 13:51:08;;;;;;;;;0.80;0.80;;;;;;;;5084328;28;8882;-81
2024/02/15 13:53:36;;;;;;;;;1.60;1.60;;;;;;;;5082100;28;8854;-80
2024/02/15 13:56:05;;;;;;;;;1.40;1.00;;;;;;;;5088790;28;8850;-82
2024/02/15 13:58:33;;;;;;;;;2.00;2.00;;;;;;;;5088874;28;8868;-82
2024/02/15 14:01:03;;;;;;;;;0.00;0.00;;;;;;;;5088101;28;8799;-83
2024/02/15 14:03:33;;;;;;;;;0.80;0.80;;;;;;;;5088308;28;8846;-83
2024/02/15 14:06:00;;;;;;;;;2.60;1.60;;;;;;;;5087885;28;8870;-82
2024/02/15 14:08:28;;;;;;;;;2.00;2.00;;;;;;;;5087921;28;8854;-81
2024/02/15 14:10:55;;;;;;;;;3.20;2.00;;;;;;;;5088412;28;8903;-80
2024/02/15 14:13:25;;;;;;;;;1.60;1.60;;;;;;;;5088078;28;8834;-81
2024/02/15 14:15:52;;;;;;;;;2.00;2.00;;;;;;;;5076653;28;8869;-82
2024/02/15 14:18:19;;;;;;;;;3.80;3.00;;;;;;;;5088000;28;8854;-81
2024/02/15 14:20:48;;;;;;;;;2.00;2.00;;;;;;;;5088670;28;8866;-78
2024/02/15 14:23:15;;;;;;;;;1.40;1.40;;;;;;;;5089247;28;9944;-81
2024/02/15 14:25:43;;;;;;;;;2.00;2.00;;;;;;;;5099413;28;8846;-81
2024/02/15 14:28:11;;;;;;;;;4.40;2.80;;;;;;;;5088773;28;8861;-82
2024/02/15 14:33:26;;;;;;;;;1.40;1.40;;;;;;;;5089845;28;8826;-80
2024/02/15 14:35:55;;;;;;;;;2.00;2.00;;;;;;;;5090602;28;8849;-80
2024/02/15 14:38:25;;;;;;;;;1.80;1.80;;;;;;;;5091329;28;8883;-81
2024/02/15 14:40:57;;;;;;;;;2.80;2.80;;;;;;;;5090397;28;8850;-79
2024/02/15 14:43:26;;;;;;;;;2.40;2.40;;;;;;;;5078545;28;8826;-78
2024/02/15 14:45:56;;;;;;;;;1.00;1.00;;;;;;;;5090466;28;8988;-81
2024/02/15 14:48:23;;;;;;;;;2.00;2.00;;;;;;;;5078633;28;9788;-77
2024/02/15 14:50:52;;;;;;;;;1.80;1.80;;;;;;;;5088605;28;9648;-80
2024/02/15 14:53:19;;;;;;;;;2.00;2.00;;;;;;;;5088459;28;8957;-78
2024/02/15 14:55:46;;;;;;;;;2.00;2.00;;;;;;;;5087751;28;8872;-80
2024/02/15 14:58:16;;;;;;;;;5.00;2.20;;;;;;;;5087957;28;8854;-78
2024/02/15 15:00:44;;;;;;;;;1.80;1.80;;;;;;;;5088237;28;8782;-79
2024/02/15 15:03:13;;;;;;;;;2.20;2.20;;;;;;;;5087242;28;8858;-80
2024/02/15 15:13:58;;;;;;;;;3.40;2.80;;;;;;;;5087322;28;8830;-79
2024/02/15 15:16:27;;;;;;;;;3.20;3.20;;;;;;;;5088031;28;9629;-79
2024/02/15 15:18:58;;;;;;;;;2.00;2.00;;;;;;;;5089368;28;8931;-78
2024/02/15 15:21:27;;;;;;;;;5.00;5.00;;;;;;;;5092819;28;8958;-78
2024/02/15 15:23:54;;;;;;;;;3.00;3.00;;;;;;;;5092590;28;8915;-78
2024/02/15 15:26:22;;;;;;;;;4.00;4.00;;;;;;;;5091737;28;8853;-76
2024/02/15 15:28:50;;;;;;;;;3.20;2.20;;;;;;;;5091814;28;8870;-79
2024/02/15 15:31:19;;;;;;;;;3.40;2.80;;;;;;;;5091283;28;8790;-78
2024/02/15 15:33:47;;;;;;;;;4.60;4.60;;;;;;;;5091149;28;8860;-79
2024/02/15 15:36:17;;;;;;;;;5.00;5.00;;;;;;;;5090997;28;8861;-78
2024/02/15 15:38:45;;;;;;;;;6.00;4.60;;;;;;;;5091121;28;8842;-76
2024/02/15 15:41:13;;;;;;;;;5.00;5.00;;;;;;;;5091949;28;8968;-81
2024/02/15 15:43:43;;;;;;;;;6.80;5.40;;;;;;;;5091153;28;8873;-76
2024/02/15 15:46:14;;;;;;;;;5.80;5.00;;;;;;;;5091294;28;8922;-78
2024/02/15 15:48:43;;;;;;;;;5.60;5.60;;;;;;;;5091249;28;8853;-78
2024/02/15 15:51:10;;;;;;;;;6.00;6.00;;;;;;;;5091979;28;8927;-76
2024/02/15 15:53:40;;;;;;;;;5.00;5.00;;;;;;;;5091413;28;8908;-77